Time;durP1;ratioP1;P1;durP2;ratioP2;P2;SDS_P1;SDS_P2;PMS_P1;PMS_P2;Temp;Humidity;BMP_temperature;BMP_pressure;BME280_temperature;BME280_humidity;BME280_pressure;Samples;Min_cycle;Max_cycle;Signal;HPM_P1;HPM_P2
2024/03/02 00:00:40;;;;;;;1.25;0.20;;;8.70;95.80;;;;;;4918678;28;20565;-86
2024/03/02 00:03:09;;;;;;;0.80;0.30;;;8.70;95.80;;;;;;4957724;28;20074;-81
2024/03/02 00:05:37;;;;;;;0.60;0.20;;;8.60;95.80;;;;;;4949049;28;20058;-86
2024/03/02 00:08:06;;;;;;;2.20;0.50;;;8.70;95.90;;;;;;4940801;28;20509;-86
2024/03/02 00:10:39;;;;;;;0.80;0.30;;;8.70;95.90;;;;;;4941691;28;20043;-81
2024/03/02 00:13:08;;;;;;;0.90;0.30;;;8.70;95.90;;;;;;4941615;28;20062;-81
2024/03/02 00:15:51;;;;;;;0.63;0.30;;;8.70;95.80;;;;;;4964773;28;20062;-82
2024/03/02 00:18:21;;;;;;;1.10;0.35;;;8.70;95.80;;;;;;4937844;28;20051;-81
2024/03/02 00:20:48;;;;;;;1.95;0.30;;;8.70;95.90;;;;;;4964308;28;20050;-81
2024/03/02 00:23:16;;;;;;;0.80;0.30;;;8.70;95.90;;;;;;4916132;28;20047;-81
2024/03/02 00:25:48;;;;;;;1.02;0.30;;;8.60;96.00;;;;;;4928850;29;20098;-81
2024/03/02 00:28:23;;;;;;;1.17;0.20;;;8.60;96.10;;;;;;4943799;28;20055;-81
2024/03/02 00:31:11;;;;;;;0.60;0.20;;;8.60;96.20;;;;;;4971998;28;20132;-86
2024/03/02 00:33:43;;;;;;;1.02;0.40;;;8.60;96.20;;;;;;4963923;28;20098;-84
2024/03/02 00:36:13;;;;;;;1.20;0.40;;;8.60;96.20;;;;;;4954469;28;20053;-81
2024/03/02 00:38:51;;;;;;;1.30;0.30;;;8.60;96.10;;;;;;4959396;28;20054;-86
2024/03/02 00:41:28;;;;;;;0.85;0.30;;;8.70;96.10;;;;;;4972360;28;20419;-86
2024/03/02 00:44:05;;;;;;;1.63;0.30;;;8.70;96.00;;;;;;4931968;28;20043;-82
2024/03/02 00:46:43;;;;;;;0.85;0.30;;;8.70;95.90;;;;;;4973179;28;20043;-82
2024/03/02 00:49:10;;;;;;;1.45;0.50;;;8.80;95.90;;;;;;4930524;28;20069;-86
2024/03/02 00:51:38;;;;;;;0.73;0.30;;;8.80;95.90;;;;;;4948522;28;20129;-81
2024/03/02 00:54:09;;;;;;;0.80;0.30;;;8.80;95.80;;;;;;4939055;29;20111;-86
2024/03/02 00:56:36;;;;;;;1.20;0.30;;;8.80;95.80;;;;;;4932871;28;20054;-86
2024/03/02 00:59:03;;;;;;;1.52;0.25;;;8.80;95.80;;;;;;4942979;28;20052;-82
2024/03/02 01:01:30;;;;;;;0.98;0.52;;;8.80;95.80;;;;;;4953334;28;20060;-86
2024/03/02 01:03:57;;;;;;;2.03;0.40;;;8.80;95.80;;;;;;4920588;28;20113;-81
2024/03/02 01:06:25;;;;;;;1.02;0.20;;;8.90;95.90;;;;;;4938330;28;20046;-86
2024/03/02 01:08:53;;;;;;;0.90;0.20;;;8.90;95.90;;;;;;4936034;28;20053;-82
2024/03/02 01:11:23;;;;;;;0.55;0.20;;;8.90;95.90;;;;;;4948227;28;20057;-86
2024/03/02 01:13:51;;;;;;;0.98;0.35;;;8.90;95.90;;;;;;4934477;28;20062;-86
2024/03/02 01:16:20;;;;;;;0.85;0.30;;;8.90;95.90;;;;;;4956820;28;20054;-82
2024/03/02 01:18:47;;;;;;;0.98;0.28;;;8.90;95.90;;;;;;4958806;28;20082;-87
2024/03/02 01:21:15;;;;;;;1.88;0.32;;;8.90;95.90;;;;;;4948351;29;20047;-81
2024/03/02 01:23:43;;;;;;;0.95;0.30;;;8.90;95.90;;;;;;4955023;28;20081;-81
2024/03/02 01:26:10;;;;;;;1.98;0.50;;;8.90;95.80;;;;;;4940537;28;20076;-86
2024/03/02 01:28:37;;;;;;;2.50;0.47;;;8.90;95.50;;;;;;4916781;28;20042;-86
2024/03/02 01:31:04;;;;;;;3.00;0.60;;;8.90;95.30;;;;;;4932796;29;20086;-87
2024/03/02 01:33:31;;;;;;;1.08;0.30;;;8.90;95.20;;;;;;4955502;28;20051;-81
2024/03/02 01:35:58;;;;;;;1.23;0.30;;;8.90;95.00;;;;;;4944338;28;20078;-86
2024/03/02 01:38:25;;;;;;;0.88;0.40;;;8.90;95.10;;;;;;4950252;28;20138;-81
2024/03/02 01:40:52;;;;;;;0.70;0.40;;;8.90;95.10;;;;;;4936841;29;20070;-81
2024/03/02 01:43:19;;;;;;;0.63;0.20;;;8.90;95.30;;;;;;4933006;29;20403;-81
2024/03/02 01:45:46;;;;;;;0.40;0.20;;;8.90;95.30;;;;;;4944583;28;20070;-87
2024/03/02 01:48:14;;;;;;;1.20;0.30;;;8.90;95.30;;;;;;4933644;29;20043;-81
2024/03/02 01:50:41;;;;;;;0.47;0.20;;;9.00;95.30;;;;;;4909267;29;20051;-86
2024/03/02 01:53:09;;;;;;;1.55;0.20;;;9.00;95.40;;;;;;4919405;28;20051;-80
2024/03/02 01:55:36;;;;;;;0.88;0.10;;;8.90;95.40;;;;;;4918155;29;20075;-81
2024/03/02 01:58:06;;;;;;;0.38;0.10;;;8.90;95.50;;;;;;4907675;28;20490;-86
2024/03/02 02:00:34;;;;;;;0.65;0.10;;;8.90;95.60;;;;;;4944724;29;20051;-86
2024/03/02 02:03:01;;;;;;;0.70;0.13;;;8.90;95.60;;;;;;4924935;29;20047;-86
2024/03/02 02:05:28;;;;;;;0.65;0.10;;;8.90;95.70;;;;;;4933062;29;20556;-80
2024/03/02 02:07:55;;;;;;;0.20;0.05;;;8.90;95.80;;;;;;4924681;29;20047;-86
2024/03/02 02:10:22;;;;;;;0.95;0.10;;;8.90;95.90;;;;;;4927924;29;20044;-81
2024/03/02 02:12:49;;;;;;;0.10;0.00;;;8.80;96.00;;;;;;4934421;29;20036;-80
2024/03/02 02:15:26;;;;;;;0.60;0.10;;;8.80;96.10;;;;;;4939915;28;20093;-82
2024/03/02 02:17:55;;;;;;;0.20;0.00;;;8.90;96.20;;;;;;4926262;29;20058;-86
2024/03/02 02:20:22;;;;;;;0.13;0.00;;;8.80;96.30;;;;;;4930020;29;20079;-87
2024/03/02 02:23:00;;;;;;;0.00;0.00;;;8.80;96.40;;;;;;4937289;29;20550;-86
2024/03/02 02:25:29;;;;;;;0.00;0.00;;;8.80;96.50;;;;;;4925925;29;20054;-86
2024/03/02 02:27:57;;;;;;;0.25;0.00;;;8.80;96.50;;;;;;4920379;29;20054;-80
2024/03/02 02:30:27;;;;;;;0.00;0.00;;;8.80;96.60;;;;;;4907419;29;20043;-87
2024/03/02 02:32:54;;;;;;;0.15;0.00;;;8.70;96.70;;;;;;4929083;28;20105;-87
2024/03/02 02:35:25;;;;;;;0.20;0.00;;;8.80;96.80;;;;;;4929453;28;20057;-87
2024/03/02 02:37:53;;;;;;;0.10;0.00;;;8.70;96.80;;;;;;4939452;29;20047;-82
2024/03/02 02:40:21;;;;;;;0.22;0.00;;;8.70;96.90;;;;;;4953072;29;20051;-86
2024/03/02 02:42:48;;;;;;;0.47;0.00;;;8.70;97.00;;;;;;4948941;28;20171;-83
2024/03/02 02:45:16;;;;;;;0.08;0.00;;;8.70;97.10;;;;;;4929371;28;20071;-81
2024/03/02 02:47:44;;;;;;;0.20;0.00;;;8.70;97.10;;;;;;4921286;29;20388;-82
2024/03/02 02:50:12;;;;;;;0.25;0.00;;;8.70;97.10;;;;;;4962611;28;20140;-82
2024/03/02 02:52:42;;;;;;;0.10;0.00;;;8.70;97.10;;;;;;4930801;28;20058;-82
2024/03/02 02:55:11;;;;;;;0.80;0.00;;;8.70;97.20;;;;;;4974117;28;20059;-87
2024/03/02 02:57:42;;;;;;;0.00;0.00;;;8.70;97.20;;;;;;4958570;28;20043;-85
2024/03/02 03:00:15;;;;;;;0.00;0.00;;;8.70;97.30;;;;;;4959515;28;20058;-82
2024/03/02 03:02:48;;;;;;;0.55;0.00;;;8.60;97.20;;;;;;4952459;29;20048;-81
2024/03/02 03:05:17;;;;;;;0.13;0.00;;;8.60;97.30;;;;;;4968814;28;20122;-87
2024/03/02 03:07:44;;;;;;;0.20;0.00;;;8.50;97.40;;;;;;4926613;28;20065;-87
2024/03/02 03:10:12;;;;;;;0.28;0.00;;;8.50;97.50;;;;;;4925095;29;20047;-86
2024/03/02 03:12:42;;;;;;;0.10;0.00;;;8.50;97.50;;;;;;4956159;28;20053;-87
2024/03/02 03:15:11;;;;;;;0.10;0.00;;;8.50;97.60;;;;;;4925686;29;20488;-87
2024/03/02 03:17:38;;;;;;;0.05;0.00;;;8.40;97.60;;;;;;4962516;28;20047;-84
2024/03/02 03:20:09;;;;;;;0.30;0.08;;;8.40;97.60;;;;;;4942913;28;20065;-87
2024/03/02 03:22:37;;;;;;;0.00;0.00;;;8.40;97.50;;;;;;4941370;28;20149;-81
2024/03/02 03:25:06;;;;;;;0.28;0.10;;;8.40;97.50;;;;;;4942713;28;20133;-87
2024/03/02 03:27:33;;;;;;;0.00;0.00;;;8.40;97.50;;;;;;4951642;28;20117;-82
2024/03/02 03:30:03;;;;;;;1.65;0.03;;;8.40;97.60;;;;;;4928098;28;20046;-87
2024/03/02 03:32:30;;;;;;;0.13;0.00;;;8.40;97.50;;;;;;4945346;28;20065;-81
2024/03/02 03:35:00;;;;;;;0.32;0.10;;;8.40;97.50;;;;;;4938396;28;20039;-81
2024/03/02 03:37:32;;;;;;;0.25;0.00;;;8.40;97.60;;;;;;4952465;28;20047;-81
2024/03/02 03:40:06;;;;;;;0.10;0.00;;;8.30;97.50;;;;;;4962296;28;20446;-81
2024/03/02 03:42:34;;;;;;;0.00;0.00;;;8.30;97.50;;;;;;4934442;28;20050;-81
2024/03/02 03:45:01;;;;;;;0.10;0.00;;;8.30;97.60;;;;;;4913123;29;20134;-82
2024/03/02 03:47:28;;;;;;;0.15;0.00;;;8.30;97.60;;;;;;4935613;29;20048;-81
2024/03/02 03:49:55;;;;;;;0.45;0.00;;;8.30;97.70;;;;;;4907410;29;20067;-81
2024/03/02 03:52:22;;;;;;;0.28;0.03;;;8.30;97.70;;;;;;4973065;28;20042;-81
2024/03/02 03:54:49;;;;;;;0.30;0.10;;;8.30;97.80;;;;;;4941894;28;20054;-87
2024/03/02 03:57:16;;;;;;;0.35;0.00;;;8.20;97.80;;;;;;4968160;28;20046;-86
2024/03/02 03:59:44;;;;;;;0.20;0.10;;;8.20;97.90;;;;;;4944736;29;20058;-86
2024/03/02 04:02:12;;;;;;;0.40;0.00;;;8.20;98.00;;;;;;4941036;28;20053;-86
2024/03/02 04:04:39;;;;;;;0.20;0.10;;;8.20;98.10;;;;;;4934756;28;20042;-82
2024/03/02 04:07:07;;;;;;;0.25;0.10;;;8.10;98.20;;;;;;4943069;28;20043;-82
2024/03/02 04:09:34;;;;;;;0.00;0.00;;;8.10;98.20;;;;;;4941894;28;20043;-81
2024/03/02 04:12:01;;;;;;;0.15;0.10;;;8.10;98.30;;;;;;4964733;28;20053;-81
2024/03/02 04:14:28;;;;;;;0.50;0.00;;;8.10;98.30;;;;;;4939834;29;20404;-82
2024/03/02 04:16:55;;;;;;;0.17;0.10;;;8.10;98.30;;;;;;4938169;28;20051;-81
2024/03/02 04:19:22;;;;;;;0.47;0.10;;;8.10;98.40;;;;;;4957593;28;20046;-86
2024/03/02 04:21:49;;;;;;;1.40;0.10;;;8.10;98.40;;;;;;4960470;28;20419;-82
2024/03/02 04:24:16;;;;;;;0.25;0.05;;;8.10;98.50;;;;;;4925890;28;20070;-82
2024/03/02 04:26:43;;;;;;;0.45;0.10;;;8.10;98.60;;;;;;4922048;29;20511;-86
2024/03/02 04:29:10;;;;;;;0.35;0.00;;;8.10;98.60;;;;;;4924470;28;20046;-86
2024/03/02 04:31:37;;;;;;;0.10;0.10;;;8.10;98.70;;;;;;4950139;28;20051;-87
2024/03/02 04:34:05;;;;;;;0.30;0.00;;;8.10;98.70;;;;;;4958214;28;20129;-82
2024/03/02 04:36:32;;;;;;;0.08;0.00;;;8.10;98.70;;;;;;4937175;28;20050;-86
2024/03/02 04:38:59;;;;;;;1.10;0.10;;;8.00;98.70;;;;;;4922820;28;20054;-86
2024/03/02 04:41:27;;;;;;;1.17;0.00;;;8.00;98.70;;;;;;4926831;28;20082;-87
2024/03/02 04:43:54;;;;;;;1.05;0.00;;;8.00;98.80;;;;;;4943479;28;20051;-81
2024/03/02 04:46:21;;;;;;;0.38;0.03;;;8.00;98.80;;;;;;4953423;28;20064;-82
2024/03/02 04:48:54;;;;;;;0.75;0.10;;;7.90;98.90;;;;;;4924896;28;20051;-84
2024/03/02 04:51:22;;;;;;;0.55;0.10;;;7.90;99.00;;;;;;4948527;28;20403;-82
2024/03/02 04:53:49;;;;;;;0.43;0.00;;;7.80;99.10;;;;;;4943253;28;20094;-85
2024/03/02 04:58:58;;;;;;;0.10;0.00;;;7.70;99.30;;;;;;4946659;28;20058;-81
2024/03/02 05:01:25;;;;;;;0.28;0.00;;;7.70;99.40;;;;;;4961071;28;20046;-87
2024/03/02 05:03:52;;;;;;;0.03;0.00;;;7.60;99.50;;;;;;4950541;28;20042;-82
2024/03/02 05:06:19;;;;;;;0.00;0.00;;;7.50;99.60;;;;;;4936746;28;20506;-87
2024/03/02 05:08:47;;;;;;;0.00;0.00;;;7.50;99.80;;;;;;4935412;28;20508;-86
2024/03/02 05:14:00;;;;;;;0.10;0.00;;;7.50;99.90;;;;;;4946849;28;20054;-82
2024/03/02 05:16:27;;;;;;;0.63;0.00;;;7.40;99.90;;;;;;4955973;28;20046;-87
2024/03/02 05:18:54;;;;;;;0.20;0.03;;;7.40;99.90;;;;;;4945135;28;20050;-86
2024/03/02 05:21:22;;;;;;;0.22;0.10;;;7.40;99.90;;;;;;4939959;28;20125;-81
2024/03/02 05:23:49;;;;;;;0.28;0.10;;;7.40;99.90;;;;;;4952625;28;20038;-81
2024/03/02 05:26:16;;;;;;;1.20;0.10;;;7.40;99.90;;;;;;4959484;28;20038;-86
2024/03/02 05:28:43;;;;;;;0.13;0.00;;;7.40;99.90;;;;;;4958789;28;20042;-81
2024/03/02 05:31:11;;;;;;;1.75;0.20;;;7.30;99.90;;;;;;4947750;28;20039;-86
2024/03/02 05:33:38;;;;;;;0.20;0.10;;;7.30;99.90;;;;;;4946121;28;20169;-86
2024/03/02 05:36:06;;;;;;;0.25;0.10;;;7.30;99.90;;;;;;4944991;28;20114;-86
2024/03/02 05:38:36;;;;;;;0.40;0.10;;;7.30;99.90;;;;;;4939125;29;20114;-82
2024/03/02 05:41:03;;;;;;;0.30;0.10;;;7.20;99.90;;;;;;4931484;29;20051;-87
2024/03/02 05:43:30;;;;;;;0.17;0.10;;;7.20;99.90;;;;;;4926053;28;20484;-82
2024/03/02 05:46:00;;;;;;;0.30;0.10;;;7.20;99.90;;;;;;4929044;29;20106;-86
2024/03/02 05:48:27;;;;;;;0.20;0.10;;;7.10;99.90;;;;;;4927707;29;20134;-86
2024/03/02 05:50:54;;;;;;;0.38;0.08;;;7.10;99.90;;;;;;4940628;28;20484;-87
2024/03/02 05:53:21;;;;;;;0.00;0.00;;;7.10;99.90;;;;;;4921349;29;20107;-82
2024/03/02 05:55:53;;;;;;;0.38;0.10;;;7.00;99.90;;;;;;4935030;29;20059;-85
2024/03/02 06:00:47;;;;;;;0.93;0.40;;;7.00;99.90;;;;;;4939208;29;20063;-82
2024/03/02 06:03:15;;;;;;;0.47;0.00;;;7.00;99.90;;;;;;4921105;28;20526;-86
2024/03/02 06:05:42;;;;;;;0.00;0.00;;;6.90;99.90;;;;;;4938495;28;20051;-86
2024/03/02 06:08:09;;;;;;;0.45;0.13;;;6.90;99.90;;;;;;4900762;29;20044;-82
2024/03/02 06:10:36;;;;;;;0.00;0.00;;;6.90;99.90;;;;;;4921460;29;20126;-82
2024/03/02 06:13:03;;;;;;;0.52;0.10;;;6.90;99.90;;;;;;4931149;29;20126;-82
2024/03/02 06:15:31;;;;;;;0.20;0.00;;;6.80;99.90;;;;;;4939880;28;20051;-85
2024/03/02 06:18:10;;;;;;;0.57;0.10;;;6.70;99.90;;;;;;4937419;28;20061;-86
2024/03/02 06:20:37;;;;;;;0.08;0.00;;;6.70;99.90;;;;;;4948250;28;20080;-86
2024/03/02 06:23:05;;;;;;;0.00;0.00;;;6.60;99.90;;;;;;4936496;28;20055;-86
2024/03/02 06:25:32;;;;;;;0.45;0.10;;;6.60;99.90;;;;;;4931543;28;20043;-86
2024/03/02 06:27:59;;;;;;;0.22;0.00;;;6.50;99.90;;;;;;4929231;29;20044;-81
2024/03/02 06:30:26;;;;;;;0.17;0.00;;;6.40;99.90;;;;;;4929901;28;20039;-86
2024/03/02 06:32:54;;;;;;;0.00;0.00;;;6.40;99.90;;;;;;4935742;29;20103;-81
2024/03/02 06:35:22;;;;;;;0.00;0.00;;;6.30;99.90;;;;;;4944640;28;20055;-81
2024/03/02 06:37:49;;;;;;;0.05;0.00;;;6.30;99.90;;;;;;4939602;28;20050;-81
2024/03/02 06:40:16;;;;;;;0.00;0.00;;;6.30;99.90;;;;;;4942281;28;20059;-86
2024/03/02 06:42:43;;;;;;;0.35;0.00;;;6.30;99.90;;;;;;4920594;29;20151;-87
2024/03/02 06:45:10;;;;;;;0.20;0.00;;;6.40;99.90;;;;;;4939451;28;20050;-82
2024/03/02 06:47:37;;;;;;;0.00;0.00;;;6.40;99.90;;;;;;4932317;29;20052;-82
2024/03/02 06:50:06;;;;;;;0.28;0.00;;;6.50;99.90;;;;;;4924550;28;20491;-81
2024/03/02 06:52:34;;;;;;;0.00;0.00;;;6.60;99.90;;;;;;4920481;29;20397;-82
2024/03/02 06:55:01;;;;;;;0.03;0.00;;;6.60;99.90;;;;;;4933508;29;20111;-82
2024/03/02 06:57:28;;;;;;;1.20;0.10;;;6.70;99.90;;;;;;4935074;29;20079;-86
2024/03/02 06:59:58;;;;;;;0.32;0.03;;;6.80;99.90;;;;;;4932000;29;20596;-82
2024/03/02 07:02:26;;;;;;;0.20;0.00;;;7.00;99.90;;;;;;4935901;29;20500;-81
2024/03/02 07:04:54;;;;;;;0.08;0.00;;;7.00;99.90;;;;;;4926747;29;20043;-86
2024/03/02 07:07:21;;;;;;;0.43;0.00;;;7.00;99.90;;;;;;4951220;28;20051;-85
2024/03/02 07:09:48;;;;;;;0.28;0.00;;;7.10;99.90;;;;;;4931520;29;20103;-83
2024/03/02 07:12:15;;;;;;;0.00;0.00;;;7.00;99.90;;;;;;4945108;28;20046;-81
2024/03/02 07:17:28;;;;;;;2.40;0.60;;;7.00;99.90;;;;;;4949574;28;20055;-86
2024/03/02 07:19:58;;;;;;;0.40;0.00;;;7.00;99.90;;;;;;4932504;29;20559;-81
2024/03/02 07:22:25;;;;;;;0.13;0.00;;;7.00;99.90;;;;;;4963301;28;20133;-80
2024/03/02 07:24:52;;;;;;;0.20;0.00;;;7.10;99.90;;;;;;4923059;29;20040;-81
2024/03/02 07:27:20;;;;;;;0.20;0.00;;;7.10;99.90;;;;;;4950990;28;20117;-86
2024/03/02 07:29:47;;;;;;;0.15;0.00;;;7.10;99.90;;;;;;4929715;28;20086;-86
2024/03/02 07:32:14;;;;;;;0.00;0.00;;;7.10;99.90;;;;;;4929987;29;20120;-86
2024/03/02 07:34:42;;;;;;;0.28;0.00;;;7.20;99.90;;;;;;4942486;28;20058;-81
2024/03/02 07:37:09;;;;;;;2.10;0.10;;;7.20;99.90;;;;;;4934515;28;20496;-81
2024/03/02 07:39:37;;;;;;;0.30;0.10;;;7.20;99.90;;;;;;4954974;28;20491;-86
2024/03/02 07:42:05;;;;;;;1.20;0.10;;;7.30;99.90;;;;;;4942049;28;20054;-80
2024/03/02 07:44:32;;;;;;;1.20;0.00;;;7.30;99.90;;;;;;4951067;28;20046;-80
2024/03/02 07:46:59;;;;;;;0.88;0.10;;;7.40;99.90;;;;;;4950682;28;20432;-81
2024/03/02 07:49:26;;;;;;;0.40;0.10;;;7.40;99.90;;;;;;4941287;28;20137;-82
2024/03/02 07:51:53;;;;;;;0.30;0.00;;;7.50;99.90;;;;;;4944342;28;20513;-81
2024/03/02 07:54:20;;;;;;;0.10;0.05;;;7.50;99.90;;;;;;4951325;29;20058;-86
2024/03/02 07:56:47;;;;;;;0.10;0.00;;;7.60;99.90;;;;;;4956813;28;20496;-86
2024/03/02 07:59:14;;;;;;;0.90;0.10;;;7.70;99.90;;;;;;4958936;28;20050;-81
2024/03/02 08:01:41;;;;;;;0.50;0.17;;;7.70;99.90;;;;;;4944836;28;20057;-81
2024/03/02 08:04:09;;;;;;;0.20;0.00;;;7.80;99.90;;;;;;4973588;28;20043;-86
2024/03/02 08:06:36;;;;;;;0.30;0.00;;;7.90;99.90;;;;;;4965750;28;20594;-85
2024/03/02 08:09:09;;;;;;;0.47;0.10;;;8.00;99.90;;;;;;4972978;28;20120;-86
2024/03/02 08:11:37;;;;;;;0.40;0.10;;;8.10;99.90;;;;;;4935155;29;20062;-80
2024/03/02 08:14:04;;;;;;;0.28;0.03;;;8.20;99.90;;;;;;4924992;28;20060;-81
2024/03/02 08:16:32;;;;;;;0.73;0.10;;;8.30;99.70;;;;;;4976484;28;20060;-85
2024/03/02 08:18:59;;;;;;;1.08;0.10;;;8.40;99.60;;;;;;4947752;28;20081;-80
2024/03/02 08:21:38;;;;;;;0.32;0.00;;;8.50;99.50;;;;;;4958773;28;20057;-81
2024/03/02 08:24:06;;;;;;;0.30;0.00;;;8.60;99.40;;;;;;4951636;28;20057;-77
2024/03/02 08:26:34;;;;;;;0.35;0.00;;;8.70;99.40;;;;;;4989886;28;20410;-79
2024/03/02 08:29:03;;;;;;;0.38;0.00;;;8.70;99.30;;;;;;4979157;28;20097;-79
2024/03/02 08:31:30;;;;;;;0.45;0.10;;;8.80;99.30;;;;;;4966283;28;20392;-79
2024/03/02 08:33:58;;;;;;;0.40;0.00;;;8.80;99.30;;;;;;4931407;28;20049;-84
2024/03/02 08:36:25;;;;;;;0.10;0.00;;;8.80;99.30;;;;;;4926565;29;20035;-79
2024/03/02 08:38:52;;;;;;;1.05;0.35;;;8.80;99.20;;;;;;4955338;29;20555;-83
2024/03/02 08:41:20;;;;;;;0.30;0.00;;;8.90;99.20;;;;;;4952394;28;20133;-79
2024/03/02 08:43:52;;;;;;;1.30;0.10;;;8.90;99.00;;;;;;4941252;29;20057;-82
2024/03/02 08:46:20;;;;;;;1.52;0.10;;;8.90;98.80;;;;;;4960594;28;20054;-79
2024/03/02 08:48:47;;;;;;;0.70;0.10;;;9.00;98.50;;;;;;4944522;28;20047;-80
2024/03/02 08:51:14;;;;;;;1.15;0.10;;;9.00;98.00;;;;;;4986887;28;20043;-83
2024/03/02 08:53:42;;;;;;;1.45;0.20;;;9.00;98.10;;;;;;4979947;28;20509;-81
2024/03/02 08:56:10;;;;;;;0.52;0.10;;;9.00;98.10;;;;;;4963561;28;20053;-83
2024/03/02 08:58:37;;;;;;;1.45;0.10;;;9.00;98.10;;;;;;4976592;28;20105;-77
2024/03/02 09:01:04;;;;;;;0.60;0.10;;;9.00;98.10;;;;;;4971992;28;20414;-77
2024/03/02 09:03:33;;;;;;;0.85;0.40;;;9.10;98.00;;;;;;4947556;28;20045;-80
2024/03/02 09:06:00;;;;;;;3.53;0.38;;;9.10;98.10;;;;;;4979630;28;20379;-81
2024/03/02 09:08:27;;;;;;;1.25;0.20;;;9.10;97.70;;;;;;4952944;28;20039;-81
2024/03/02 09:10:56;;;;;;;1.80;0.40;;;9.10;96.70;;;;;;4952907;28;20050;-83
2024/03/02 09:13:23;;;;;;;3.38;0.30;;;9.20;96.60;;;;;;4979075;28;20122;-76
2024/03/02 09:15:50;;;;;;;1.33;0.20;;;9.20;96.40;;;;;;4931206;28;20060;-80
2024/03/02 09:18:19;;;;;;;0.63;0.17;;;9.30;96.40;;;;;;4973366;28;20046;-80
2024/03/02 09:20:47;;;;;;;2.72;0.73;;;9.30;96.40;;;;;;4996415;28;20129;-78
2024/03/02 09:23:14;;;;;;;2.85;0.20;;;9.30;96.00;;;;;;4963168;28;20054;-78
2024/03/02 09:25:41;;;;;;;1.30;0.15;;;9.30;95.80;;;;;;4962814;28;20049;-77
2024/03/02 09:28:10;;;;;;;0.73;0.22;;;9.30;96.00;;;;;;4962017;28;20042;-78
2024/03/02 09:30:39;;;;;;;1.65;0.30;;;9.30;96.00;;;;;;4967217;28;20049;-80
2024/03/02 09:33:06;;;;;;;0.60;0.10;;;9.30;95.90;;;;;;4957287;28;20042;-77
2024/03/02 09:35:36;;;;;;;2.13;0.20;;;9.30;95.90;;;;;;4948235;28;20043;-77
2024/03/02 09:38:03;;;;;;;0.57;0.10;;;9.40;96.10;;;;;;4967578;28;20042;-79
2024/03/02 09:40:30;;;;;;;0.88;0.10;;;9.40;96.10;;;;;;4926958;28;20054;-76
2024/03/02 09:42:58;;;;;;;0.75;0.10;;;9.40;95.60;;;;;;4974651;28;20047;-80
2024/03/02 09:45:26;;;;;;;0.32;0.10;;;9.50;95.70;;;;;;4957175;28;20051;-80
2024/03/02 09:47:54;;;;;;;0.47;0.10;;;9.50;95.70;;;;;;4937001;28;20050;-82
2024/03/02 09:50:25;;;;;;;1.02;0.20;;;9.50;95.40;;;;;;4943435;28;20446;-81
2024/03/02 09:52:52;;;;;;;3.58;0.55;;;9.50;95.00;;;;;;4959093;28;20047;-80
2024/03/02 09:55:20;;;;;;;2.83;0.35;;;9.60;94.90;;;;;;4923668;28;20078;-81
2024/03/02 09:57:50;;;;;;;0.65;0.10;;;9.60;95.00;;;;;;4940190;28;20510;-76
2024/03/02 10:00:19;;;;;;;2.30;0.20;;;9.60;95.10;;;;;;4967177;28;20435;-78
2024/03/02 10:02:48;;;;;;;2.00;0.52;;;9.60;95.20;;;;;;4963336;28;20106;-79
2024/03/02 10:05:28;;;;;;;1.13;0.30;;;9.60;94.90;;;;;;4949895;29;20047;-76
2024/03/02 10:08:03;;;;;;;1.23;0.30;;;9.70;94.80;;;;;;4961998;28;20039;-78
2024/03/02 10:10:41;;;;;;;1.50;0.10;;;9.80;94.90;;;;;;4961432;28;20043;-79
2024/03/02 10:13:13;;;;;;;0.40;0.10;;;9.80;94.90;;;;;;4959736;28;20077;-76
2024/03/02 10:15:41;;;;;;;0.40;0.10;;;9.80;95.00;;;;;;4974839;28;20361;-78
2024/03/02 10:18:13;;;;;;;0.30;0.10;;;9.90;95.00;;;;;;4945322;29;20061;-77
2024/03/02 10:20:40;;;;;;;0.53;0.10;;;9.90;95.00;;;;;;4959805;28;20055;-83
2024/03/02 10:23:16;;;;;;;0.77;0.20;;;10.00;94.70;;;;;;4970535;28;20345;-80
2024/03/02 10:25:45;;;;;;;2.53;0.10;;;10.00;94.70;;;;;;4987267;28;20038;-78
2024/03/02 10:28:23;;;;;;;1.80;0.20;;;10.00;94.20;;;;;;4948777;28;20039;-76
2024/03/02 10:30:54;;;;;;;1.05;0.20;;;10.10;94.10;;;;;;4959835;28;20049;-82
2024/03/02 10:33:21;;;;;;;1.30;0.10;;;10.10;94.20;;;;;;4972492;28;20037;-82
2024/03/02 10:35:50;;;;;;;1.70;0.10;;;10.20;94.30;;;;;;4938698;28;20053;-86
2024/03/02 10:38:17;;;;;;;0.50;0.10;;;10.20;94.10;;;;;;4955797;28;20479;-87
2024/03/02 10:40:50;;;;;;;1.55;0.10;;;10.30;94.20;;;;;;4977937;28;20042;-84
2024/03/02 10:43:18;;;;;;;0.65;0.10;;;10.30;94.20;;;;;;4961842;28;20428;-83
2024/03/02 10:45:51;;;;;;;2.03;0.22;;;10.30;94.20;;;;;;4977379;28;20386;-84
2024/03/02 10:48:21;;;;;;;0.70;0.13;;;10.30;94.10;;;;;;4961875;28;20046;-85
2024/03/02 10:50:48;;;;;;;0.00;0.00;;;10.40;94.10;;;;;;4963463;28;20410;-87
2024/03/02 10:53:16;;;;;;;0.93;0.10;;;10.40;94.10;;;;;;4961272;28;20487;-82
2024/03/02 10:55:43;;;;;;;1.00;0.10;;;10.40;93.70;;;;;;4940790;29;20047;-76
2024/03/02 10:58:15;;;;;;;0.95;0.00;;;10.40;93.80;;;;;;4968816;28;20057;-74
2024/03/02 11:00:45;;;;;;;0.43;0.10;;;10.50;93.80;;;;;;4969745;28;20118;-76
2024/03/02 11:03:14;;;;;;;0.73;0.10;;;10.50;93.70;;;;;;4958014;28;20407;-75
2024/03/02 11:05:44;;;;;;;0.52;0.10;;;10.50;93.60;;;;;;4943911;28;20039;-79
2024/03/02 11:08:19;;;;;;;1.40;0.20;;;10.50;93.40;;;;;;4969043;28;20068;-87
2024/03/02 11:10:57;;;;;;;1.35;0.10;;;10.50;93.40;;;;;;4936132;28;20046;-76
2024/03/02 11:13:31;;;;;;;0.70;0.00;;;10.50;93.40;;;;;;4951629;28;20066;-82
2024/03/02 11:16:06;;;;;;;0.28;0.05;;;10.60;93.50;;;;;;4944649;28;20050;-77
2024/03/02 11:18:34;;;;;;;0.28;0.00;;;10.60;93.50;;;;;;4989190;28;20045;-88
2024/03/02 11:21:03;;;;;;;0.40;0.00;;;10.60;93.40;;;;;;4942362;28;20097;-79
2024/03/02 11:23:35;;;;;;;0.40;0.10;;;10.60;93.50;;;;;;4976464;28;20046;-88
2024/03/02 11:26:21;;;;;;;0.45;0.10;;;10.60;93.50;;;;;;4965272;28;20047;-81
2024/03/02 11:28:48;;;;;;;0.10;0.00;;;10.70;93.40;;;;;;4951587;29;20072;-82
2024/03/02 11:31:15;;;;;;;1.73;0.10;;;10.60;93.50;;;;;;4940496;28;20047;-82
2024/03/02 11:33:43;;;;;;;0.38;0.10;;;10.70;93.40;;;;;;4940777;28;20070;-78
2024/03/02 11:36:10;;;;;;;0.38;0.10;;;10.70;93.40;;;;;;4941527;28;20053;-84
2024/03/02 11:38:42;;;;;;;0.57;0.10;;;10.70;93.30;;;;;;4945281;28;20047;-84
2024/03/02 11:41:11;;;;;;;1.40;0.00;;;10.70;93.00;;;;;;4935796;28;20460;-89
2024/03/02 11:43:39;;;;;;;1.25;0.10;;;10.80;92.90;;;;;;4965319;28;20070;-89
2024/03/02 11:46:07;;;;;;;1.65;0.20;;;10.90;92.90;;;;;;4953914;28;20047;-88
2024/03/02 11:48:37;;;;;;;1.23;0.08;;;10.90;92.90;;;;;;4962514;28;20419;-85
2024/03/02 11:51:04;;;;;;;0.65;0.08;;;11.00;92.80;;;;;;4972701;28;20042;-81
2024/03/02 11:53:33;;;;;;;0.68;0.10;;;10.90;92.40;;;;;;4976335;28;20042;-84
2024/03/02 11:56:02;;;;;;;2.35;0.17;;;11.00;92.60;;;;;;4961425;28;20062;-83
2024/03/02 11:58:30;;;;;;;0.43;0.10;;;11.00;92.70;;;;;;4945055;29;20580;-80
2024/03/02 12:00:57;;;;;;;1.40;0.10;;;11.00;92.70;;;;;;4958878;28;20491;-83
2024/03/02 12:03:25;;;;;;;0.50;0.10;;;11.00;92.50;;;;;;4953232;28;20100;-77
2024/03/02 12:05:56;;;;;;;1.20;0.10;;;11.10;92.30;;;;;;4972640;28;20046;-89
2024/03/02 12:08:24;;;;;;;1.30;0.10;;;11.20;92.20;;;;;;4957913;28;20436;-92
2024/03/02 12:11:01;;;;;;;1.35;0.13;;;11.20;92.10;;;;;;4941812;28;20042;-78
2024/03/02 12:13:31;;;;;;;1.23;0.00;;;11.30;92.00;;;;;;4950140;28;20059;-80
2024/03/02 12:15:58;;;;;;;0.35;0.10;;;11.30;92.10;;;;;;4960071;28;20141;-81
2024/03/02 12:18:25;;;;;;;0.95;0.30;;;11.40;92.00;;;;;;4935834;28;20055;-85
2024/03/02 12:20:57;;;;;;;0.43;0.20;;;11.40;91.80;;;;;;4970246;28;20458;-82
2024/03/02 12:23:25;;;;;;;1.23;0.10;;;11.50;91.60;;;;;;4948860;28;20074;-82
2024/03/02 12:25:52;;;;;;;0.77;0.10;;;11.50;91.30;;;;;;4979625;28;20483;-82
2024/03/02 12:28:19;;;;;;;0.15;0.00;;;11.60;91.20;;;;;;4985161;28;20498;-77
2024/03/02 12:30:48;;;;;;;1.73;0.10;;;11.70;90.90;;;;;;4951838;28;20410;-78
2024/03/02 12:33:16;;;;;;;0.88;0.20;;;11.70;90.90;;;;;;4956672;28;20042;-81
2024/03/02 12:35:43;;;;;;;0.73;0.10;;;11.70;90.70;;;;;;4948133;28;20085;-77
2024/03/02 12:38:14;;;;;;;1.00;0.10;;;11.80;90.60;;;;;;4954122;28;20042;-80
2024/03/02 12:40:41;;;;;;;0.47;0.05;;;11.80;90.50;;;;;;4921614;29;20047;-81
2024/03/02 12:43:08;;;;;;;0.35;0.10;;;11.80;90.70;;;;;;4937443;29;20051;-80
2024/03/02 12:45:36;;;;;;;0.22;0.03;;;11.90;90.50;;;;;;4922954;28;20039;-80
2024/03/02 12:48:04;;;;;;;1.02;0.17;;;11.90;90.50;;;;;;4956656;28;20065;-85
2024/03/02 12:50:33;;;;;;;0.28;0.10;;;12.00;90.40;;;;;;4927845;28;20038;-86
2024/03/02 12:53:00;;;;;;;0.90;0.22;;;12.00;90.30;;;;;;4940998;28;20054;-86
2024/03/02 12:55:28;;;;;;;0.85;0.20;;;12.20;90.10;;;;;;4952188;28;20529;-81
2024/03/02 12:57:59;;;;;;;0.65;0.35;;;12.30;89.90;;;;;;4967709;28;20051;-83
2024/03/02 13:00:26;;;;;;;1.63;0.13;;;12.30;88.70;;;;;;4967225;28;20058;-88
2024/03/02 13:02:54;;;;;;;0.65;0.20;;;12.40;87.80;;;;;;4927257;28;20047;-88
2024/03/02 13:05:21;;;;;;;0.50;0.10;;;12.50;88.00;;;;;;4947168;28;20049;-84
2024/03/02 13:07:48;;;;;;;0.20;0.00;;;12.60;87.80;;;;;;4935577;28;20057;-80
2024/03/02 13:10:17;;;;;;;1.52;0.20;;;12.60;88.10;;;;;;4939289;29;20054;-86
2024/03/02 13:12:48;;;;;;;0.50;0.10;;;12.60;88.00;;;;;;4942138;28;20045;-81